createdAt,value
2023-03-27T00:01:11.963Z,96.10
2023-03-27T00:03:40.318Z,96.10
2023-03-27T00:06:11.382Z,96.20
2023-03-27T00:08:38.973Z,96.20
2023-03-27T00:11:08.070Z,96.20
2023-03-27T00:13:36.547Z,96.20
2023-03-27T00:16:16.569Z,96.20
2023-03-27T00:18:45.103Z,96.20
2023-03-27T00:21:12.201Z,96.20
2023-03-27T00:23:39.133Z,96.20
2023-03-27T00:26:06.354Z,96.20
2023-03-27T00:28:34.199Z,96.20
2023-03-27T00:31:02.128Z,96.10
2023-03-27T00:33:29.143Z,95.90
2023-03-27T00:35:56.457Z,95.90
2023-03-27T00:38:24.491Z,95.80
2023-03-27T00:40:54.735Z,95.70
2023-03-27T00:43:27.666Z,95.60
2023-03-27T00:46:14.966Z,95.60
2023-03-27T00:48:47.087Z,95.70
2023-03-27T00:51:15.818Z,95.70
2023-03-27T00:53:42.965Z,95.70
2023-03-27T00:56:10.658Z,95.70
2023-03-27T00:58:42.566Z,95.80
2023-03-27T01:01:13.513Z,95.70
2023-03-27T01:03:42.721Z,95.70
2023-03-27T01:06:13.960Z,95.60
2023-03-27T01:08:44.038Z,95.60
2023-03-27T01:11:22.425Z,95.80
2023-03-27T01:14:14.077Z,95.60
2023-03-27T01:17:07.594Z,95.80
2023-03-27T01:19:41.739Z,96.00
2023-03-27T01:22:30.549Z,96.10
2023-03-27T01:25:16.300Z,96.30
2023-03-27T01:27:52.426Z,96.30
2023-03-27T01:30:32.549Z,96.20
2023-03-27T01:33:26.950Z,96.20
2023-03-27T01:35:57.184Z,96.10
2023-03-27T01:38:29.982Z,96.10
2023-03-27T01:41:27.001Z,96.10
2023-03-27T01:44:01.515Z,96.10
2023-03-27T01:46:38.073Z,96.10
2023-03-27T01:49:12.496Z,96.10
2023-03-27T01:51:42.611Z,96.10
2023-03-27T01:54:16.720Z,96.00
2023-03-27T01:56:57.945Z,95.90
2023-03-27T01:59:27.189Z,96.00
2023-03-27T02:02:01.530Z,95.80
2023-03-27T02:04:43.916Z,95.70
2023-03-27T02:07:18.851Z,95.80
2023-03-27T02:09:56.038Z,95.80
2023-03-27T02:12:52.722Z,95.60
2023-03-27T02:15:25.440Z,95.40
2023-03-27T02:18:05.616Z,95.30
2023-03-27T02:20:34.651Z,95.30
2023-03-27T02:23:02.089Z,95.40
2023-03-27T02:25:37.032Z,95.50
2023-03-27T02:28:06.990Z,95.40
2023-03-27T02:30:42.835Z,95.10
2023-03-27T02:33:44.200Z,95.30
2023-03-27T02:36:49.205Z,95.60
2023-03-27T02:39:36.265Z,95.70
2023-03-27T02:42:08.053Z,95.70
2023-03-27T02:45:25.505Z,95.80
2023-03-27T02:47:58.895Z,95.90
2023-03-27T02:50:31.828Z,95.90
2023-03-27T02:53:10.620Z,95.70
2023-03-27T02:55:45.961Z,95.80
2023-03-27T02:58:23.975Z,95.70
2023-03-27T03:00:59.382Z,95.70
2023-03-27T03:03:49.036Z,95.60
2023-03-27T03:06:30.444Z,95.60
2023-03-27T03:09:06.283Z,95.60
2023-03-27T03:11:44.758Z,95.60
2023-03-27T03:14:12.310Z,95.60
2023-03-27T03:16:39.730Z,95.50
2023-03-27T03:19:06.913Z,95.50
2023-03-27T03:21:33.872Z,95.40
2023-03-27T03:24:01.201Z,95.70
2023-03-27T03:26:28.235Z,95.40
2023-03-27T03:29:00.476Z,95.30
2023-03-27T03:31:44.073Z,95.30
2023-03-27T03:34:18.483Z,95.30
2023-03-27T03:36:49.379Z,95.60
2023-03-27T03:39:22.566Z,95.70
2023-03-27T03:41:50.371Z,95.70
2023-03-27T03:44:17.646Z,95.90
2023-03-27T03:46:44.990Z,95.90
2023-03-27T03:49:12.158Z,96.00
2023-03-27T03:51:39.318Z,96.10
2023-03-27T03:54:07.146Z,96.10
2023-03-27T03:56:34.833Z,96.00
2023-03-27T03:59:01.770Z,96.00
2023-03-27T04:01:30.037Z,96.10
2023-03-27T04:04:02.257Z,96.10
2023-03-27T04:06:45.295Z,96.10
2023-03-27T04:09:12.420Z,96.10
2023-03-27T04:11:52.769Z,96.10
2023-03-27T04:14:43.930Z,96.20
2023-03-27T04:17:33.454Z,96.30
2023-03-27T04:20:02.459Z,96.30
2023-03-27T04:22:29.585Z,96.20
2023-03-27T04:24:58.041Z,96.10
2023-03-27T04:27:30.333Z,96.00
2023-03-27T04:30:14.139Z,95.90
2023-03-27T04:33:07.620Z,95.90
2023-03-27T04:36:06.056Z,95.90
2023-03-27T04:38:42.706Z,96.00
2023-03-27T04:41:11.599Z,96.00
2023-03-27T04:43:41.725Z,96.10
2023-03-27T04:46:08.977Z,96.10
2023-03-27T04:48:38.904Z,96.00
2023-03-27T04:51:20.041Z,95.80
2023-03-27T04:53:48.116Z,95.80
2023-03-27T04:56:16.195Z,95.90
2023-03-27T04:58:45.734Z,96.00
2023-03-27T05:01:15.653Z,96.00
2023-03-27T05:04:02.573Z,96.00
2023-03-27T05:06:48.053Z,96.00
2023-03-27T05:09:17.408Z,95.80
2023-03-27T05:11:49.593Z,95.60
2023-03-27T05:14:21.322Z,95.60
2023-03-27T05:16:50.728Z,95.60
2023-03-27T05:19:22.275Z,95.70
2023-03-27T05:21:58.051Z,95.80
2023-03-27T05:24:24.984Z,95.80
2023-03-27T05:26:53.279Z,95.90
2023-03-27T05:29:20.290Z,95.80
2023-03-27T05:31:54.763Z,95.80
2023-03-27T05:34:38.562Z,96.00
2023-03-27T05:37:07.415Z,96.10
2023-03-27T05:39:46.933Z,95.90
2023-03-27T05:42:15.294Z,95.80
2023-03-27T05:44:43.631Z,95.80
2023-03-27T05:47:12.855Z,95.90
2023-03-27T05:49:40.808Z,96.30
2023-03-27T05:52:12.154Z,96.10
2023-03-27T05:54:39.103Z,96.30
2023-03-27T05:57:10.623Z,96.50
2023-03-27T05:59:39.765Z,96.70
2023-03-27T06:02:25.575Z,96.60
2023-03-27T06:04:59.329Z,96.40
2023-03-27T06:07:43.139Z,96.30
2023-03-27T06:10:14.339Z,96.10
2023-03-27T06:13:06.469Z,96.00
2023-03-27T06:15:43.271Z,95.90
2023-03-27T06:18:18.752Z,95.90
2023-03-27T06:20:45.801Z,95.80
2023-03-27T06:23:12.994Z,95.80
2023-03-27T06:25:40.952Z,95.80
2023-03-27T06:28:11.216Z,95.80
2023-03-27T06:30:50.004Z,95.80
2023-03-27T06:33:46.976Z,95.90
2023-03-27T06:36:27.401Z,95.90
2023-03-27T06:38:56.380Z,95.80
2023-03-27T06:41:23.954Z,95.80
2023-03-27T06:44:04.437Z,95.80
2023-03-27T06:46:47.576Z,95.80
2023-03-27T06:49:21.516Z,95.80
2023-03-27T06:51:49.059Z,95.80
2023-03-27T06:54:16.676Z,95.80
2023-03-27T06:56:50.650Z,96.00
2023-03-27T06:59:20.726Z,95.70
2023-03-27T07:01:52.733Z,95.60
2023-03-27T07:04:35.041Z,95.60
2023-03-27T07:07:12.384Z,95.50
2023-03-27T07:09:42.782Z,95.40
2023-03-27T07:12:13.672Z,95.30
2023-03-27T07:14:43.147Z,95.20
2023-03-27T07:17:10.036Z,95.20
2023-03-27T07:19:51.916Z,95.20
2023-03-27T07:22:23.977Z,95.20
2023-03-27T07:24:50.966Z,95.10
2023-03-27T07:27:19.229Z,95.00
2023-03-27T07:29:47.013Z,95.00
2023-03-27T07:32:29.721Z,95.20
2023-03-27T07:35:05.688Z,95.20
2023-03-27T07:37:53.977Z,95.30
2023-03-27T07:40:39.822Z,95.40
2023-03-27T07:43:39.698Z,95.20
2023-03-27T07:46:07.815Z,95.10
2023-03-27T07:48:35.944Z,94.80
2023-03-27T07:51:13.256Z,93.60
2023-03-27T07:53:41.978Z,93.30
2023-03-27T07:56:29.120Z,93.10
2023-03-27T07:59:32.305Z,92.30
2023-03-27T08:02:15.971Z,91.60
2023-03-27T08:04:43.177Z,91.40
2023-03-27T08:07:11.669Z,91.20
2023-03-27T08:09:41.581Z,90.30
2023-03-27T08:12:09.058Z,90.40
2023-03-27T08:14:41.298Z,90.20
2023-03-27T08:17:36.083Z,89.40
2023-03-27T08:20:09.131Z,88.80
2023-03-27T08:22:44.633Z,88.40
2023-03-27T08:25:33.323Z,88.30
2023-03-27T08:28:03.092Z,87.50
2023-03-27T08:30:31.098Z,86.90
2023-03-27T08:33:00.140Z,85.90
2023-03-27T08:35:27.691Z,85.60
2023-03-27T08:37:55.063Z,85.00
2023-03-27T08:40:32.116Z,84.10
2023-03-27T08:43:23.286Z,82.80
2023-03-27T08:45:56.751Z,80.90
2023-03-27T08:48:50.711Z,79.20
2023-03-27T08:51:25.042Z,81.70
2023-03-27T08:53:57.899Z,82.10
2023-03-27T08:56:28.970Z,79.50
2023-03-27T08:58:57.262Z,78.10
2023-03-27T09:01:36.588Z,75.20
2023-03-27T09:04:20.916Z,78.10
2023-03-27T09:06:55.958Z,78.40
2023-03-27T09:09:59.294Z,77.30
2023-03-27T09:12:31.842Z,76.80
2023-03-27T09:15:15.889Z,74.20
2023-03-27T09:17:53.914Z,72.90
2023-03-27T09:20:32.329Z,72.80
2023-03-27T09:23:16.165Z,71.50
2023-03-27T09:26:07.673Z,71.70
2023-03-27T09:29:04.109Z,71.90
2023-03-27T09:31:47.682Z,71.70
2023-03-27T09:34:18.991Z,70.60
2023-03-27T09:36:46.688Z,63.50
2023-03-27T09:39:22.051Z,65.10
2023-03-27T09:42:11.178Z,65.10
2023-03-27T09:44:42.479Z,66.90
2023-03-27T09:47:16.520Z,67.60
2023-03-27T09:50:02.134Z,68.70
2023-03-27T09:52:49.059Z,64.60
2023-03-27T09:55:32.308Z,61.20
2023-03-27T09:58:23.349Z,64.70
2023-03-27T10:01:10.456Z,65.20
2023-03-27T10:03:51.304Z,67.80
2023-03-27T10:06:38.790Z,66.70
2023-03-27T10:09:27.255Z,64.90
2023-03-27T10:12:08.254Z,65.90
2023-03-27T10:14:47.327Z,65.40
2023-03-27T10:17:33.056Z,64.70
2023-03-27T10:20:14.076Z,63.50
2023-03-27T10:22:51.509Z,63.10
2023-03-27T10:25:34.219Z,62.50
2023-03-27T10:28:27.072Z,63.50
2023-03-27T10:31:29.886Z,62.50
2023-03-27T10:34:36.734Z,60.30
2023-03-27T10:37:34.379Z,61.70
2023-03-27T10:40:33.192Z,64.60
2023-03-27T10:43:30.778Z,64.00
2023-03-27T10:46:05.987Z,60.30
2023-03-27T10:49:28.751Z,61.50
2023-03-27T10:52:19.009Z,61.50
2023-03-27T10:55:17.341Z,62.10
2023-03-27T10:57:49.912Z,61.00
2023-03-27T11:00:41.037Z,61.10
2023-03-27T11:03:22.307Z,60.40
2023-03-27T11:06:00.758Z,60.00
2023-03-27T11:08:53.193Z,60.80
2023-03-27T11:11:37.832Z,59.40
2023-03-27T11:14:12.083Z,60.90
2023-03-27T11:16:44.302Z,58.30
2023-03-27T11:19:11.381Z,54.70
2023-03-27T11:22:32.578Z,54.30
2023-03-27T11:25:07.792Z,56.20
2023-03-27T11:28:03.285Z,54.40
2023-03-27T11:31:13.217Z,53.90
2023-03-27T11:34:06.239Z,53.50
2023-03-27T11:36:43.456Z,52.30
2023-03-27T11:39:36.676Z,53.50
2023-03-27T11:42:17.960Z,52.80
2023-03-27T11:44:48.768Z,52.70
2023-03-27T11:47:43.742Z,51.40
2023-03-27T11:50:27.925Z,51.60
2023-03-27T11:53:33.576Z,52.50
2023-03-27T11:56:41.482Z,54.10
2023-03-27T11:59:41.992Z,52.30
2023-03-27T12:02:33.419Z,52.60
2023-03-27T12:05:38.507Z,51.00
2023-03-27T12:08:22.804Z,49.90
2023-03-27T12:10:54.316Z,48.10
2023-03-27T12:13:58.174Z,49.20
2023-03-27T12:16:56.145Z,48.10
2023-03-27T12:19:39.009Z,49.10
2023-03-27T12:22:47.642Z,46.20
2023-03-27T12:26:12.472Z,45.90
2023-03-27T12:29:31.132Z,43.50
2023-03-27T12:32:49.641Z,42.10
2023-03-27T12:35:22.890Z,43.60
2023-03-27T12:38:12.268Z,43.70
2023-03-27T12:40:47.747Z,43.10
2023-03-27T12:43:33.821Z,43.00
2023-03-27T12:46:26.322Z,41.70
2023-03-27T12:49:01.180Z,39.20
2023-03-27T12:51:43.226Z,39.70
2023-03-27T12:54:25.925Z,39.50
2023-03-27T12:57:19.058Z,40.00
2023-03-27T12:59:49.112Z,38.90
2023-03-27T13:02:39.859Z,39.70
2023-03-27T13:05:42.366Z,39.30
2023-03-27T13:08:49.323Z,39.30
2023-03-27T13:11:49.613Z,40.00
2023-03-27T13:15:11.987Z,40.50
2023-03-27T13:17:39.782Z,39.10
2023-03-27T13:20:10.344Z,37.80
2023-03-27T13:22:49.402Z,38.00
2023-03-27T13:25:21.733Z,38.30
2023-03-27T13:28:23.610Z,36.80
2023-03-27T13:31:05.370Z,35.80
2023-03-27T13:34:29.399Z,37.60
2023-03-27T13:37:07.739Z,40.10
2023-03-27T13:39:45.666Z,38.90
2023-03-27T13:42:21.226Z,36.50
2023-03-27T13:45:02.099Z,38.60
2023-03-27T13:47:44.853Z,39.80
2023-03-27T13:50:23.816Z,37.50
2023-03-27T13:53:23.810Z,35.20
2023-03-27T13:56:29.277Z,31.30
2023-03-27T13:59:38.603Z,34.20
2023-03-27T14:02:41.370Z,32.90
2023-03-27T14:05:42.281Z,32.80
2023-03-27T14:08:40.610Z,32.50
2023-03-27T14:11:37.904Z,33.90
2023-03-27T14:14:38.518Z,33.70
2023-03-27T14:17:41.572Z,34.60
2023-03-27T14:20:11.773Z,34.90
2023-03-27T14:22:42.558Z,33.90
2023-03-27T14:25:14.832Z,36.00
2023-03-27T14:27:55.394Z,35.50
2023-03-27T14:30:32.664Z,34.50
2023-03-27T14:33:20.416Z,34.10
2023-03-27T14:35:57.280Z,35.00
2023-03-27T14:38:32.091Z,33.40
2023-03-27T14:41:05.790Z,34.20
2023-03-27T14:43:48.778Z,36.40
2023-03-27T14:46:17.020Z,37.90
2023-03-27T14:48:47.324Z,39.00
2023-03-27T14:51:25.111Z,39.80
2023-03-27T14:53:59.744Z,40.00
2023-03-27T14:56:42.016Z,34.00
2023-03-27T14:59:40.744Z,36.50
2023-03-27T15:02:26.687Z,35.10
2023-03-27T15:05:08.467Z,36.70
2023-03-27T15:07:37.473Z,38.00
2023-03-27T15:10:31.595Z,39.30
2023-03-27T15:13:35.945Z,40.70
2023-03-27T15:16:06.677Z,40.50
2023-03-27T15:18:43.098Z,39.40
2023-03-27T15:21:20.890Z,40.60
2023-03-27T15:24:00.969Z,39.70
2023-03-27T15:26:35.038Z,41.20
2023-03-27T15:29:18.633Z,42.00
2023-03-27T15:31:49.089Z,44.90
2023-03-27T15:34:34.506Z,45.20
2023-03-27T15:37:10.002Z,44.40
2023-03-27T15:39:52.132Z,45.10
2023-03-27T15:42:20.892Z,45.10
2023-03-27T15:44:47.835Z,45.70
2023-03-27T15:47:26.828Z,46.60
2023-03-27T15:50:22.521Z,47.60
2023-03-27T15:52:51.366Z,47.80
2023-03-27T15:55:42.212Z,48.30
2023-03-27T15:58:27.523Z,49.10
2023-03-27T16:01:00.662Z,49.50
2023-03-27T16:03:33.214Z,49.10
2023-03-27T16:06:02.793Z,48.40
2023-03-27T16:08:37.495Z,47.60
2023-03-27T16:11:06.393Z,48.50
2023-03-27T16:13:41.992Z,50.70
2023-03-27T16:16:23.044Z,52.90
2023-03-27T16:18:51.348Z,50.70
2023-03-27T16:21:23.186Z,45.80
2023-03-27T16:23:50.326Z,47.30
2023-03-27T16:26:22.070Z,47.00
2023-03-27T16:28:49.158Z,47.10
2023-03-27T16:31:19.177Z,45.50
2023-03-27T16:33:46.483Z,44.10
2023-03-27T16:36:30.425Z,44.40
2023-03-27T16:38:57.542Z,44.70
2023-03-27T16:41:24.418Z,45.70
2023-03-27T16:43:51.367Z,46.20
2023-03-27T16:46:24.306Z,47.10
2023-03-27T16:48:52.780Z,47.50
2023-03-27T16:51:22.083Z,47.70
2023-03-27T16:53:49.153Z,48.20
2023-03-27T16:56:16.294Z,49.00
2023-03-27T16:58:43.234Z,49.40
2023-03-27T17:01:10.408Z,49.30
2023-03-27T17:03:37.908Z,49.00
2023-03-27T17:06:10.164Z,49.30
2023-03-27T17:08:37.395Z,50.20
2023-03-27T17:11:06.833Z,50.50
2023-03-27T17:13:34.074Z,50.90
2023-03-27T17:16:01.191Z,51.40
2023-03-27T17:18:28.488Z,52.40
2023-03-27T17:20:55.396Z,53.80
2023-03-27T17:23:22.791Z,46.50
2023-03-27T17:25:50.302Z,44.50
2023-03-27T17:28:17.742Z,43.80
2023-03-27T17:30:56.778Z,42.40
2023-03-27T17:33:28.572Z,41.90
2023-03-27T17:35:57.232Z,40.30
2023-03-27T17:38:24.605Z,40.00
2023-03-27T17:40:51.886Z,38.10
2023-03-27T17:43:18.894Z,38.60
2023-03-27T17:45:46.158Z,35.00
2023-03-27T17:48:13.057Z,33.60
2023-03-27T17:50:40.130Z,33.10
2023-03-27T17:53:07.958Z,33.80
2023-03-27T17:55:37.901Z,34.00
2023-03-27T17:58:09.688Z,33.10
2023-03-27T18:00:38.601Z,33.00
2023-03-27T18:03:06.684Z,33.30
2023-03-27T18:05:41.543Z,33.60
2023-03-27T18:08:10.814Z,32.40
2023-03-27T18:10:44.149Z,32.70
2023-03-27T18:13:11.929Z,34.30
2023-03-27T18:15:40.794Z,33.60
2023-03-27T18:18:08.185Z,31.60
2023-03-27T18:20:35.762Z,32.30
2023-03-27T18:23:03.124Z,31.60
2023-03-27T18:25:30.620Z,32.10
2023-03-27T18:27:57.702Z,32.00
2023-03-27T18:30:24.817Z,33.00
2023-03-27T18:32:52.317Z,34.30
2023-03-27T18:35:20.611Z,35.50
2023-03-27T18:37:47.645Z,37.30
2023-03-27T18:40:16.678Z,38.30
2023-03-27T18:42:46.622Z,39.00
2023-03-27T18:45:15.523Z,38.30
2023-03-27T18:47:44.157Z,37.50
2023-03-27T18:50:13.158Z,36.00
2023-03-27T18:52:41.756Z,34.20
2023-03-27T18:55:11.224Z,33.20
2023-03-27T18:57:38.248Z,33.60
2023-03-27T19:00:15.076Z,34.00
2023-03-27T19:02:42.848Z,34.50
2023-03-27T19:05:10.195Z,34.40
2023-03-27T19:07:37.831Z,34.70
2023-03-27T19:10:12.855Z,33.80
2023-03-27T19:12:39.936Z,34.60
2023-03-27T19:15:27.176Z,35.50
2023-03-27T19:18:25.112Z,34.80
2023-03-27T19:21:13.362Z,36.20
2023-03-27T19:23:53.281Z,35.50
2023-03-27T19:26:23.931Z,34.40
2023-03-27T19:28:50.998Z,35.80
2023-03-27T19:31:18.232Z,36.80
2023-03-27T19:33:45.864Z,37.30
2023-03-27T19:36:12.928Z,36.30
2023-03-27T19:38:40.121Z,36.70
2023-03-27T19:41:11.057Z,37.60
2023-03-27T19:43:38.015Z,38.40
2023-03-27T19:46:15.929Z,39.10
2023-03-27T19:48:49.782Z,39.60
2023-03-27T19:51:28.412Z,41.90
2023-03-27T19:53:55.523Z,42.70
2023-03-27T19:56:24.990Z,44.10
2023-03-27T19:58:52.326Z,44.90
2023-03-27T20:01:20.101Z,46.40
2023-03-27T20:03:47.299Z,47.30
2023-03-27T20:06:18.932Z,49.10
2023-03-27T20:08:46.321Z,50.20
2023-03-27T20:11:15.424Z,51.70
2023-03-27T20:13:55.614Z,53.20
2023-03-27T20:16:26.478Z,53.40
2023-03-27T20:19:04.600Z,53.70
2023-03-27T20:21:35.091Z,54.60
2023-03-27T20:24:05.838Z,55.20
2023-03-27T20:26:39.405Z,56.90
2023-03-27T20:29:18.755Z,56.90
2023-03-27T20:31:46.411Z,56.00
2023-03-27T20:34:14.280Z,54.20
2023-03-27T20:36:41.228Z,50.20
2023-03-27T20:39:22.968Z,45.40
2023-03-27T20:41:51.470Z,40.30
2023-03-27T20:44:18.445Z,37.70
2023-03-27T20:46:51.898Z,36.30
2023-03-27T20:49:40.084Z,35.70
2023-03-27T20:52:09.130Z,34.90
2023-03-27T20:54:36.540Z,33.90
2023-03-27T20:57:03.657Z,32.40
2023-03-27T20:59:31.099Z,32.10
2023-03-27T21:01:59.489Z,31.10
2023-03-27T21:04:28.885Z,30.00
2023-03-27T21:06:57.754Z,30.00
2023-03-27T21:09:26.724Z,29.40
2023-03-27T21:11:55.365Z,30.20
2023-03-27T21:14:22.464Z,29.90
2023-03-27T21:16:49.647Z,30.10
2023-03-27T21:19:17.145Z,30.10
2023-03-27T21:21:45.176Z,31.40
2023-03-27T21:24:13.278Z,30.80
2023-03-27T21:26:41.505Z,30.20
2023-03-27T21:29:11.438Z,30.30
2023-03-27T21:31:43.113Z,29.90
2023-03-27T21:34:10.375Z,30.70
2023-03-27T21:36:37.998Z,31.20
2023-03-27T21:39:05.606Z,31.80
2023-03-27T21:41:32.604Z,32.30
2023-03-27T21:43:59.606Z,31.40
2023-03-27T21:46:26.726Z,32.20
2023-03-27T21:48:53.750Z,32.10
2023-03-27T21:51:21.010Z,32.00
2023-03-27T21:53:48.100Z,32.50
2023-03-27T21:56:15.326Z,32.70
2023-03-27T21:58:42.277Z,33.30
2023-03-27T22:01:09.252Z,33.10
2023-03-27T22:03:36.223Z,33.10
2023-03-27T22:08:38.284Z,33.70
2023-03-27T22:11:05.395Z,33.40
2023-03-27T22:13:33.995Z,33.30
2023-03-27T22:16:01.625Z,33.30
2023-03-27T22:18:31.404Z,33.60
2023-03-27T22:20:58.283Z,33.50
2023-03-27T22:23:25.401Z,33.60
2023-03-27T22:25:53.996Z,33.80
2023-03-27T22:28:21.053Z,34.50
2023-03-27T22:30:48.276Z,34.80
2023-03-27T22:33:15.381Z,35.00
2023-03-27T22:35:48.917Z,35.40
2023-03-27T22:38:16.606Z,36.10
2023-03-27T22:40:43.897Z,35.40
2023-03-27T22:43:10.825Z,35.90
2023-03-27T22:45:50.253Z,36.50
2023-03-27T22:48:17.186Z,37.10
2023-03-27T22:50:44.394Z,38.20
2023-03-27T22:53:11.390Z,38.90
2023-03-27T22:55:38.434Z,39.20
2023-03-27T22:58:05.315Z,40.40
2023-03-27T23:00:32.296Z,40.50
2023-03-27T23:02:59.329Z,41.00
2023-03-27T23:05:26.333Z,41.40
2023-03-27T23:07:53.202Z,41.50
2023-03-27T23:10:20.444Z,41.90
2023-03-27T23:12:47.353Z,42.00
2023-03-27T23:15:14.610Z,42.50
2023-03-27T23:17:41.497Z,42.80
2023-03-27T23:20:08.806Z,42.80
2023-03-27T23:22:35.762Z,42.50
2023-03-27T23:25:02.817Z,43.00
2023-03-27T23:27:29.703Z,43.50
2023-03-27T23:29:56.694Z,43.40
2023-03-27T23:32:23.718Z,43.60
2023-03-27T23:34:50.745Z,44.00
2023-03-27T23:37:17.619Z,44.80
2023-03-27T23:39:44.607Z,44.70
2023-03-27T23:42:11.728Z,45.10
2023-03-27T23:44:38.702Z,45.60
2023-03-27T23:47:05.985Z,45.40
2023-03-27T23:49:32.925Z,45.60
2023-03-27T23:52:00.098Z,46.30
2023-03-27T23:54:27.069Z,46.70
2023-03-27T23:56:53.983Z,47.10
2023-03-27T23:59:21.163Z,47.40
